Time;durP1;ratioP1;P1;durP2;ratioP2;P2;SDS_P1;SDS_P2;PMS_P1;PMS_P2;Temp;Humidity;BMP_temperature;BMP_pressure;BME280_temperature;BME280_humidity;BME280_pressure;Samples;Min_cycle;Max_cycle;Signal;HPM_P1;HPM_P2
2021/12/25 00:01:46;;;;;;;3.57;3.27;;;;;;;;;;5076242;28;20599;-58
2021/12/25 00:04:12;;;;;;;4.00;3.43;;;;;;;;;;5090392;28;20179;-58
2021/12/25 00:06:38;;;;;;;3.60;3.07;;;;;;;;;;5085045;28;20584;-58
2021/12/25 00:09:08;;;;;;;4.30;3.90;;;;;;;;;;5090189;28;20180;-60
2021/12/25 00:11:35;;;;;;;4.00;3.57;;;;;;;;;;5085978;28;20500;-58
2021/12/25 00:14:09;;;;;;;4.40;3.70;;;;;;;;;;5073515;28;20189;-58
2021/12/25 00:16:35;;;;;;;4.13;3.60;;;;;;;;;;5086449;28;20553;-59
2021/12/25 00:19:05;;;;;;;4.60;4.20;;;;;;;;;;5081440;28;20176;-58
2021/12/25 00:21:34;;;;;;;4.50;3.57;;;;;;;;;;5093456;28;20587;-58
2021/12/25 00:24:04;;;;;;;4.20;3.80;;;;;;;;;;5081481;28;20585;-60
2021/12/25 00:26:48;;;;;;;4.23;3.83;;;;;;;;;;5069950;28;20672;-59
2021/12/25 00:29:53;;;;;;;4.03;3.63;;;;;;;;;;5079952;28;20587;-57
2021/12/25 00:32:15;;;;;;;4.00;3.60;;;;;;;;;;5088045;28;20175;-58
2021/12/25 00:34:42;;;;;;;4.07;3.67;;;;;;;;;;5082406;28;20174;-58
2021/12/25 00:37:08;;;;;;;3.87;3.33;;;;;;;;;;5078421;28;20180;-57
2021/12/25 00:39:35;;;;;;;3.60;3.30;;;;;;;;;;5051507;28;20180;-58
2021/12/25 00:42:01;;;;;;;4.87;3.87;;;;;;;;;;5088227;28;20183;-59
2021/12/25 00:44:28;;;;;;;4.33;3.90;;;;;;;;;;5087348;28;20594;-57
2021/12/25 00:46:55;;;;;;;4.00;3.60;;;;;;;;;;5068464;28;20191;-58
2021/12/25 00:49:21;;;;;;;4.27;3.87;;;;;;;;;;5087955;28;20180;-58
2021/12/25 00:51:47;;;;;;;4.17;3.77;;;;;;;;;;5064584;28;20218;-57
2021/12/25 00:54:15;;;;;;;4.77;4.23;;;;;;;;;;5047563;28;20181;-59
2021/12/25 00:56:41;;;;;;;4.13;3.73;;;;;;;;;;5083403;28;20197;-58
2021/12/25 00:59:08;;;;;;;4.80;4.20;;;;;;;;;;5069697;28;20180;-57
2021/12/25 01:01:34;;;;;;;4.23;3.83;;;;;;;;;;5050836;28;20267;-58
2021/12/25 01:04:00;;;;;;;3.93;3.53;;;;;;;;;;5049943;28;20183;-55
2021/12/25 01:06:26;;;;;;;4.63;4.23;;;;;;;;;;5049257;28;20204;-56
2021/12/25 01:08:53;;;;;;;4.73;4.23;;;;;;;;;;5069845;28;20186;-57
2021/12/25 01:11:20;;;;;;;4.77;4.27;;;;;;;;;;5067736;28;20296;-58
2021/12/25 01:13:53;;;;;;;5.30;4.80;;;;;;;;;;5067996;28;20176;-59
2021/12/25 01:19:24;;;;;;;5.17;4.67;;;;;;;;;;5071147;28;20643;-58
2021/12/25 01:27:25;;;;;;;5.90;5.30;;;;;;;;;;5070264;28;20200;-58
2021/12/25 01:29:51;;;;;;;5.37;4.87;;;;;;;;;;5070138;28;20197;-58
2021/12/25 01:38:19;;;;;;;6.30;5.67;;;;;;;;;;5080205;28;20192;-57
2021/12/25 01:48:47;;;;;;;6.47;5.83;;;;;;;;;;5065214;28;20556;-57
2021/12/25 01:51:13;;;;;;;6.40;5.80;;;;;;;;;;5055526;28;20239;-56
2021/12/25 01:53:39;;;;;;;7.33;6.13;;;;;;;;;;5070090;28;20552;-57
2021/12/25 01:56:05;;;;;;;7.70;6.90;;;;;;;;;;5090641;28;20191;-57
2021/12/25 01:58:40;;;;;;;7.97;7.17;;;;;;;;;;5089415;28;20231;-58
2021/12/25 02:01:07;;;;;;;8.30;7.50;;;;;;;;;;5071575;28;20648;-58
2021/12/25 02:03:36;;;;;;;7.80;6.80;;;;;;;;;;5070507;28;20172;-56
2021/12/25 02:06:03;;;;;;;7.30;6.43;;;;;;;;;;5090359;28;20673;-57
2021/12/25 02:08:29;;;;;;;8.13;7.33;;;;;;;;;;5050507;28;20278;-57
2021/12/25 02:10:56;;;;;;;9.03;8.13;;;;;;;;;;5072074;28;20201;-57
2021/12/25 02:13:26;;;;;;;9.20;8.30;;;;;;;;;;5067138;28;20172;-57
2021/12/25 02:15:54;;;;;;;8.70;7.80;;;;;;;;;;5071308;28;20545;-59
2021/12/25 02:18:27;;;;;;;8.00;7.27;;;;;;;;;;5089744;28;20168;-57
2021/12/25 02:23:24;;;;;;;8.97;8.07;;;;;;;;;;5088194;28;20180;-57
2021/12/25 02:25:51;;;;;;;7.87;7.07;;;;;;;;;;5061587;28;20282;-57
2021/12/25 02:28:19;;;;;;;9.40;8.47;;;;;;;;;;5088447;28;20204;-58
2021/12/25 02:30:47;;;;;;;8.27;7.40;;;;;;;;;;5069868;28;20624;-57
2021/12/25 02:33:13;;;;;;;7.37;6.67;;;;;;;;;;5088753;28;20183;-57
2021/12/25 02:35:39;;;;;;;8.33;7.17;;;;;;;;;;5089849;28;20229;-57
2021/12/25 02:38:06;;;;;;;8.23;7.37;;;;;;;;;;5089165;28;20947;-58
2021/12/25 02:40:35;;;;;;;8.60;7.70;;;;;;;;;;5070080;28;20187;-59
2021/12/25 02:43:02;;;;;;;7.40;6.70;;;;;;;;;;5068598;28;20172;-55
2021/12/25 02:45:28;;;;;;;8.90;8.00;;;;;;;;;;5054894;28;20618;-53
2021/12/25 02:47:56;;;;;;;8.43;7.63;;;;;;;;;;5089537;28;20285;-55
2021/12/25 02:50:30;;;;;;;9.57;8.63;;;;;;;;;;5071195;28;20175;-57
2021/12/25 02:52:57;;;;;;;8.47;7.67;;;;;;;;;;5080528;28;20612;-55
2021/12/25 02:55:24;;;;;;;8.53;7.63;;;;;;;;;;5051172;28;20196;-56
2021/12/25 02:57:52;;;;;;;8.17;7.37;;;;;;;;;;5048197;28;20287;-55
2021/12/25 03:00:20;;;;;;;8.13;7.37;;;;;;;;;;5068484;28;20191;-56
2021/12/25 03:02:47;;;;;;;8.20;7.40;;;;;;;;;;5052256;28;20180;-56
2021/12/25 03:05:13;;;;;;;7.60;6.90;;;;;;;;;;5052033;28;20275;-56
2021/12/25 03:07:40;;;;;;;7.30;6.60;;;;;;;;;;5054339;28;20604;-55
2021/12/25 03:10:07;;;;;;;7.67;6.87;;;;;;;;;;5075266;28;20180;-55
2021/12/25 03:12:48;;;;;;;7.63;6.93;;;;;;;;;;5069174;28;20185;-56
2021/12/25 03:15:25;;;;;;;7.57;6.77;;;;;;;;;;5051961;28;20238;-55
2021/12/25 03:17:52;;;;;;;8.10;7.30;;;;;;;;;;5078104;28;20209;-55
2021/12/25 03:20:18;;;;;;;8.40;7.57;;;;;;;;;;5076326;28;20184;-57
2021/12/25 03:22:44;;;;;;;8.77;7.87;;;;;;;;;;5051701;28;20200;-56
2021/12/25 03:25:12;;;;;;;7.80;7.07;;;;;;;;;;5066433;28;20180;-56
2021/12/25 03:27:39;;;;;;;8.80;7.90;;;;;;;;;;5067219;28;20303;-56
2021/12/25 03:30:06;;;;;;;8.17;7.47;;;;;;;;;;5072836;28;20550;-56
2021/12/25 03:32:33;;;;;;;9.00;8.10;;;;;;;;;;5050588;28;20188;-56
2021/12/25 03:34:59;;;;;;;7.83;7.03;;;;;;;;;;5050711;28;20187;-56
2021/12/25 03:37:25;;;;;;;8.63;7.77;;;;;;;;;;5050945;28;20184;-56
2021/12/25 03:39:52;;;;;;;8.63;7.83;;;;;;;;;;5049630;28;20192;-57
2021/12/25 03:42:18;;;;;;;8.70;7.80;;;;;;;;;;5052877;28;20194;-58
2021/12/25 03:44:46;;;;;;;8.07;7.27;;;;;;;;;;5048920;28;20306;-56
2021/12/25 03:47:24;;;;;;;8.43;7.53;;;;;;;;;;5050340;28;20200;-56
2021/12/25 03:58:10;;;;;;;8.57;7.77;;;;;;;;;;5082443;28;20632;-57
2021/12/25 04:00:37;;;;;;;8.53;7.73;;;;;;;;;;5096168;28;20194;-57
2021/12/25 04:03:09;;;;;;;8.67;7.77;;;;;;;;;;5085179;28;20914;-57
2021/12/25 04:05:38;;;;;;;8.90;8.03;;;;;;;;;;5089273;28;20663;-55
2021/12/25 04:08:07;;;;;;;9.20;8.30;;;;;;;;;;5102034;28;20184;-56
2021/12/25 04:10:38;;;;;;;8.57;7.67;;;;;;;;;;5086465;28;20180;-56
2021/12/25 04:13:06;;;;;;;8.77;7.87;;;;;;;;;;5087502;28;20212;-56
2021/12/25 04:15:32;;;;;;;8.40;7.60;;;;;;;;;;5087379;28;20634;-55
2021/12/25 04:17:59;;;;;;;9.10;8.20;;;;;;;;;;5086615;28;20192;-55
2021/12/25 04:20:26;;;;;;;9.33;8.43;;;;;;;;;;5077533;28;20179;-56
2021/12/25 04:23:09;;;;;;;8.57;7.77;;;;;;;;;;5071915;28;20190;-57
2021/12/25 04:25:36;;;;;;;8.73;7.93;;;;;;;;;;5093351;28;20637;-56
2021/12/25 04:28:12;;;;;;;9.67;8.77;;;;;;;;;;5083539;28;20277;-54
2021/12/25 04:31:07;;;;;;;8.80;7.90;;;;;;;;;;5091604;28;20181;-55
2021/12/25 05:01:43;;;;;;;9.47;8.47;;;;;;;;;;5079129;28;20256;-55
2021/12/25 05:04:36;;;;;;;10.43;9.33;;;;;;;;;;5065704;28;20697;-56
2021/12/25 05:07:05;;;;;;;10.17;9.17;;;;;;;;;;5067245;28;20224;-55
2021/12/25 05:09:31;;;;;;;9.07;8.17;;;;;;;;;;5073547;28;20631;-57
2021/12/25 05:11:57;;;;;;;10.07;8.97;;;;;;;;;;5066997;28;20180;-56
2021/12/25 05:14:24;;;;;;;9.40;8.43;;;;;;;;;;5067939;28;20645;-56
2021/12/25 05:16:52;;;;;;;11.30;9.67;;;;;;;;;;5065658;28;20233;-57
2021/12/25 05:19:18;;;;;;;9.70;8.70;;;;;;;;;;5065716;28;20196;-57
2021/12/25 05:21:44;;;;;;;10.13;9.03;;;;;;;;;;5066974;28;20216;-56
2021/12/25 05:24:11;;;;;;;10.53;9.43;;;;;;;;;;5052877;28;20191;-56
2021/12/25 05:26:38;;;;;;;9.07;8.17;;;;;;;;;;5066825;28;20208;-56
2021/12/25 05:29:06;;;;;;;9.60;8.47;;;;;;;;;;5064361;28;20181;-56
2021/12/25 05:31:33;;;;;;;10.23;9.23;;;;;;;;;;5069625;28;20218;-57
2021/12/25 05:33:59;;;;;;;10.70;9.60;;;;;;;;;;5071721;28;20200;-56
2021/12/25 05:36:27;;;;;;;10.20;9.30;;;;;;;;;;5066747;28;20188;-57
2021/12/25 05:38:59;;;;;;;10.17;9.03;;;;;;;;;;5073183;28;20182;-56
2021/12/25 05:41:26;;;;;;;9.83;8.63;;;;;;;;;;5080119;28;20549;-56
2021/12/25 05:43:52;;;;;;;9.80;8.80;;;;;;;;;;5069409;28;20556;-56
2021/12/25 05:46:19;;;;;;;9.23;8.33;;;;;;;;;;5080815;28;20231;-57
2021/12/25 05:48:48;;;;;;;9.17;8.27;;;;;;;;;;5049510;28;20604;-58
2021/12/25 05:51:15;;;;;;;8.60;7.37;;;;;;;;;;5066137;28;20246;-57
2021/12/25 05:53:44;;;;;;;8.63;7.73;;;;;;;;;;5065719;28;20176;-56
2021/12/25 05:56:11;;;;;;;9.20;8.30;;;;;;;;;;5046630;28;20278;-58
2021/12/25 05:58:37;;;;;;;7.77;7.03;;;;;;;;;;5047452;28;20585;-56
2021/12/25 06:01:04;;;;;;;7.93;7.13;;;;;;;;;;5064928;28;20194;-57
2021/12/25 06:03:31;;;;;;;8.43;7.53;;;;;;;;;;5045704;28;20217;-60
2021/12/25 06:05:58;;;;;;;8.63;7.73;;;;;;;;;;5069745;28;20638;-58
2021/12/25 06:08:25;;;;;;;8.63;7.53;;;;;;;;;;5050559;28;20164;-56
2021/12/25 06:10:52;;;;;;;8.37;7.60;;;;;;;;;;5069181;28;20419;-57
2021/12/25 06:13:21;;;;;;;8.17;7.43;;;;;;;;;;5066294;28;20642;-56
2021/12/25 06:15:47;;;;;;;8.67;7.77;;;;;;;;;;5067394;28;20175;-56
2021/12/25 06:18:14;;;;;;;8.07;7.27;;;;;;;;;;5068940;28;20173;-56
2021/12/25 06:20:43;;;;;;;8.73;7.83;;;;;;;;;;5048621;28;20529;-55
2021/12/25 06:23:15;;;;;;;9.47;7.70;;;;;;;;;;5068275;28;20537;-55
2021/12/25 06:25:42;;;;;;;8.27;7.47;;;;;;;;;;5052576;28;20184;-57
2021/12/25 06:28:08;;;;;;;8.23;7.43;;;;;;;;;;5049027;28;20645;-56
2021/12/25 06:30:35;;;;;;;9.50;8.60;;;;;;;;;;5067264;28;20200;-56
2021/12/25 06:33:01;;;;;;;8.87;7.43;;;;;;;;;;5067392;28;20180;-56
2021/12/25 06:35:28;;;;;;;8.07;7.37;;;;;;;;;;5069553;28;20173;-56
2021/12/25 06:37:57;;;;;;;9.63;8.63;;;;;;;;;;5049706;28;20639;-56
2021/12/25 06:40:24;;;;;;;9.23;8.33;;;;;;;;;;5050996;28;20227;-56
2021/12/25 06:42:50;;;;;;;9.27;8.37;;;;;;;;;;5069015;28;20184;-54
2021/12/25 06:45:16;;;;;;;8.67;7.57;;;;;;;;;;5067759;28;20180;-56
2021/12/25 06:47:43;;;;;;;10.07;8.43;;;;;;;;;;5068091;28;20192;-58
2021/12/25 06:50:11;;;;;;;8.60;7.70;;;;;;;;;;5067186;28;20249;-57
2021/12/25 06:52:37;;;;;;;8.73;7.83;;;;;;;;;;5078161;28;20227;-57
2021/12/25 06:55:04;;;;;;;9.57;8.57;;;;;;;;;;5052701;28;20252;-56
2021/12/25 06:57:31;;;;;;;8.53;7.63;;;;;;;;;;5069442;28;20689;-55
2021/12/25 06:59:57;;;;;;;9.47;8.47;;;;;;;;;;5048817;28;20176;-57
2021/12/25 07:02:23;;;;;;;9.00;8.10;;;;;;;;;;5066626;28;20324;-56
2021/12/25 07:04:50;;;;;;;10.03;9.03;;;;;;;;;;5034121;28;20180;-56
2021/12/25 07:07:17;;;;;;;9.47;8.47;;;;;;;;;;5063788;28;20208;-56
2021/12/25 07:09:44;;;;;;;10.13;9.03;;;;;;;;;;5065429;28;20200;-57
2021/12/25 07:12:10;;;;;;;9.67;8.67;;;;;;;;;;5082128;28;20208;-55
2021/12/25 07:14:37;;;;;;;10.93;8.87;;;;;;;;;;5052506;28;20218;-55
2021/12/25 07:17:07;;;;;;;12.57;9.90;;;;;;;;;;5054088;28;20235;-56
2021/12/25 07:19:36;;;;;;;11.20;9.83;;;;;;;;;;5051892;28;20658;-56
2021/12/25 07:22:05;;;;;;;12.70;9.80;;;;;;;;;;5062880;28;20192;-56
2021/12/25 07:24:32;;;;;;;10.70;9.70;;;;;;;;;;5051563;28;20176;-56
2021/12/25 07:27:03;;;;;;;11.97;10.50;;;;;;;;;;5051930;28;20203;-56
2021/12/25 07:29:29;;;;;;;11.27;8.97;;;;;;;;;;5050639;28;20189;-57
2021/12/25 07:31:56;;;;;;;10.53;9.47;;;;;;;;;;5054654;28;20207;-56
2021/12/25 07:34:23;;;;;;;10.97;9.30;;;;;;;;;;5057370;28;20195;-57
2021/12/25 07:36:49;;;;;;;11.33;10.03;;;;;;;;;;5066564;28;20550;-55
2021/12/25 07:39:15;;;;;;;11.17;10.03;;;;;;;;;;5052088;28;21398;-56
2021/12/25 07:41:42;;;;;;;10.80;9.80;;;;;;;;;;5052432;28;20577;-56
2021/12/25 07:44:08;;;;;;;10.77;9.37;;;;;;;;;;5048324;28;20177;-57
2021/12/25 07:46:34;;;;;;;12.30;10.97;;;;;;;;;;5077877;28;20208;-56
2021/12/25 07:49:00;;;;;;;11.70;10.50;;;;;;;;;;5053240;28;20317;-56
2021/12/25 07:51:26;;;;;;;11.23;9.97;;;;;;;;;;5068141;28;20278;-56
2021/12/25 07:53:53;;;;;;;11.10;10.00;;;;;;;;;;5061873;28;20578;-57
2021/12/25 07:56:24;;;;;;;13.40;10.60;;;;;;;;;;5065992;28;20223;-57
2021/12/25 07:58:51;;;;;;;10.57;9.37;;;;;;;;;;5047730;28;20513;-57
2021/12/25 08:01:19;;;;;;;11.17;10.07;;;;;;;;;;5065181;28;20219;-56
2021/12/25 08:03:45;;;;;;;12.43;10.53;;;;;;;;;;5069165;28;20199;-57
2021/12/25 08:06:12;;;;;;;13.70;10.43;;;;;;;;;;5087454;28;20207;-58
2021/12/25 08:08:38;;;;;;;11.57;10.37;;;;;;;;;;5068343;28;20179;-59
2021/12/25 08:11:04;;;;;;;11.20;10.00;;;;;;;;;;5088123;28;20175;-57
2021/12/25 08:13:33;;;;;;;12.90;10.97;;;;;;;;;;5065027;28;20228;-56
2021/12/25 08:16:00;;;;;;;13.87;11.57;;;;;;;;;;5087259;28;20654;-57
2021/12/25 08:18:26;;;;;;;13.03;11.30;;;;;;;;;;5086361;28;20193;-56
2021/12/25 08:20:52;;;;;;;13.67;11.43;;;;;;;;;;5088669;28;20372;-56
2021/12/25 08:23:19;;;;;;;13.33;11.40;;;;;;;;;;5087371;28;20237;-58
2021/12/25 08:25:45;;;;;;;15.20;12.93;;;;;;;;;;5084532;28;20207;-57
2021/12/25 08:28:12;;;;;;;13.57;11.70;;;;;;;;;;5067185;28;20204;-57
2021/12/25 08:30:38;;;;;;;13.13;11.37;;;;;;;;;;5068896;28;20184;-58
2021/12/25 08:33:05;;;;;;;15.30;12.13;;;;;;;;;;5087795;28;20229;-57
2021/12/25 08:35:34;;;;;;;13.83;11.93;;;;;;;;;;5068209;28;20175;-57
2021/12/25 08:38:01;;;;;;;15.80;13.50;;;;;;;;;;5067560;28;20580;-57
2021/12/25 08:40:28;;;;;;;15.77;12.93;;;;;;;;;;5083401;28;20188;-56
2021/12/25 08:42:59;;;;;;;15.37;12.70;;;;;;;;;;5087823;28;20194;-58
2021/12/25 08:45:45;;;;;;;13.53;11.97;;;;;;;;;;5082246;28;20179;-56
2021/12/25 08:48:18;;;;;;;14.97;12.67;;;;;;;;;;5067217;28;20455;-57
2021/12/25 08:50:52;;;;;;;15.00;12.50;;;;;;;;;;5088061;28;20262;-57
2021/12/25 08:53:19;;;;;;;18.23;13.37;;;;;;;;;;5064000;28;20191;-58
2021/12/25 08:55:47;;;;;;;16.83;13.50;;;;;;;;;;5068500;28;20179;-57
2021/12/25 08:58:13;;;;;;;16.03;12.73;;;;;;;;;;5063304;28;20172;-56
2021/12/25 09:00:40;;;;;;;17.70;12.90;;;;;;;;;;5087002;28;20418;-58
2021/12/25 09:03:06;;;;;;;15.50;12.13;;;;;;;;;;5085478;28;20671;-56
2021/12/25 09:05:36;;;;;;;14.63;12.30;;;;;;;;;;5087830;28;20205;-57
2021/12/25 09:08:20;;;;;;;15.50;12.90;;;;;;;;;;5068567;28;20976;-57
2021/12/25 09:10:47;;;;;;;15.80;12.90;;;;;;;;;;5086755;28;20425;-56
2021/12/25 09:13:13;;;;;;;13.87;12.37;;;;;;;;;;5082953;28;20513;-56
2021/12/25 09:15:39;;;;;;;14.83;12.27;;;;;;;;;;5083023;28;20183;-57
2021/12/25 09:18:05;;;;;;;15.97;11.83;;;;;;;;;;5061826;28;20487;-55
2021/12/25 09:20:32;;;;;;;13.80;11.60;;;;;;;;;;5082171;28;20210;-56
2021/12/25 09:22:58;;;;;;;14.40;11.97;;;;;;;;;;5085745;28;20409;-55
2021/12/25 09:25:25;;;;;;;14.20;12.20;;;;;;;;;;5082133;28;20421;-58
2021/12/25 09:27:52;;;;;;;17.73;10.43;;;;;;;;;;5066825;28;20207;-57
2021/12/25 09:30:21;;;;;;;8.63;7.73;;;;;;;;;;5064930;28;20426;-57
2021/12/25 09:32:47;;;;;;;7.30;6.60;;;;;;;;;;5085447;28;20428;-58
2021/12/25 09:35:14;;;;;;;6.57;5.97;;;;;;;;;;5085202;28;20433;-57
2021/12/25 09:37:40;;;;;;;6.50;5.83;;;;;;;;;;5063303;28;20476;-58
2021/12/25 09:40:08;;;;;;;6.93;6.03;;;;;;;;;;5085623;28;20495;-57
2021/12/25 09:42:35;;;;;;;6.40;5.23;;;;;;;;;;5069837;28;20441;-57
2021/12/25 09:45:01;;;;;;;6.67;6.03;;;;;;;;;;5068767;28;20450;-55
2021/12/25 09:47:28;;;;;;;6.47;5.87;;;;;;;;;;5070912;28;20454;-57
2021/12/25 09:49:55;;;;;;;5.70;5.20;;;;;;;;;;5071727;28;20426;-57
2021/12/25 09:52:21;;;;;;;7.07;5.43;;;;;;;;;;5089583;28;20461;-57
2021/12/25 09:54:48;;;;;;;5.67;5.00;;;;;;;;;;5090074;28;21186;-57
2021/12/25 09:57:14;;;;;;;5.57;5.00;;;;;;;;;;5084825;28;20452;-56
2021/12/25 09:59:41;;;;;;;6.60;5.33;;;;;;;;;;5069479;28;20429;-57
2021/12/25 10:02:13;;;;;;;5.33;4.83;;;;;;;;;;5086023;28;20414;-57
2021/12/25 10:04:39;;;;;;;5.80;4.47;;;;;;;;;;5087254;28;20417;-57
2021/12/25 10:07:23;;;;;;;5.03;4.27;;;;;;;;;;5070301;28;20452;-57
2021/12/25 10:09:55;;;;;;;5.43;4.93;;;;;;;;;;5048395;28;20414;-57
2021/12/25 10:12:22;;;;;;;4.87;4.37;;;;;;;;;;5088999;28;20461;-57
2021/12/25 10:14:53;;;;;;;5.97;5.27;;;;;;;;;;5089961;28;20471;-56
2021/12/25 10:17:21;;;;;;;5.40;4.53;;;;;;;;;;5089966;28;20425;-57
2021/12/25 10:20:00;;;;;;;6.10;4.57;;;;;;;;;;5089917;28;20422;-57
2021/12/25 10:22:29;;;;;;;7.67;5.10;;;;;;;;;;5056311;28;20493;-57
2021/12/25 10:25:15;;;;;;;5.93;4.93;;;;;;;;;;5071887;28;20426;-57
2021/12/25 10:27:52;;;;;;;5.53;4.93;;;;;;;;;;5090118;28;20963;-57
2021/12/25 10:30:18;;;;;;;6.27;4.80;;;;;;;;;;5072199;28;20413;-57
2021/12/25 10:32:44;;;;;;;4.60;4.10;;;;;;;;;;5084507;28;20437;-57
2021/12/25 10:35:15;;;;;;;4.83;4.27;;;;;;;;;;5070018;28;20846;-57
2021/12/25 10:37:46;;;;;;;5.50;5.00;;;;;;;;;;5084270;28;20945;-57
2021/12/25 10:40:26;;;;;;;5.23;4.73;;;;;;;;;;5087262;28;20774;-57
2021/12/25 10:42:56;;;;;;;6.07;5.17;;;;;;;;;;5067776;28;20425;-58
2021/12/25 10:45:26;;;;;;;5.33;4.83;;;;;;;;;;5068449;28;20430;-57
2021/12/25 10:48:06;;;;;;;5.70;5.20;;;;;;;;;;5090019;28;20510;-57
2021/12/25 10:50:37;;;;;;;4.60;4.20;;;;;;;;;;5060265;28;20490;-56
2021/12/25 10:53:07;;;;;;;4.80;4.40;;;;;;;;;;5057580;28;20442;-57
2021/12/25 10:55:37;;;;;;;4.90;4.37;;;;;;;;;;5057795;28;20406;-57
2021/12/25 10:58:17;;;;;;;6.70;4.60;;;;;;;;;;5071165;28;20810;-57
2021/12/25 11:00:48;;;;;;;6.23;4.60;;;;;;;;;;5068657;28;20407;-56
2021/12/25 11:03:14;;;;;;;5.70;4.47;;;;;;;;;;5050076;28;20484;-57
2021/12/25 11:05:45;;;;;;;4.83;4.17;;;;;;;;;;5090431;28;20825;-57
2021/12/25 11:08:14;;;;;;;6.70;5.20;;;;;;;;;;5078533;28;20250;-57
2021/12/25 11:10:47;;;;;;;4.70;4.17;;;;;;;;;;5064755;28;20971;-57
2021/12/25 11:13:20;;;;;;;4.00;3.70;;;;;;;;;;5063323;28;20407;-57
2021/12/25 11:15:47;;;;;;;4.43;4.03;;;;;;;;;;5056188;28;20905;-57
2021/12/25 11:18:17;;;;;;;5.03;4.00;;;;;;;;;;5052683;28;20459;-57
2021/12/25 11:20:45;;;;;;;4.60;4.13;;;;;;;;;;5035524;28;21105;-57
2021/12/25 11:23:13;;;;;;;5.57;4.30;;;;;;;;;;5068428;28;20441;-57
2021/12/25 11:25:40;;;;;;;4.47;4.07;;;;;;;;;;5077584;28;21035;-58
2021/12/25 11:28:09;;;;;;;4.97;3.93;;;;;;;;;;5062375;28;20470;-57
2021/12/25 11:30:37;;;;;;;4.37;3.70;;;;;;;;;;5053422;28;20268;-57
2021/12/25 11:33:03;;;;;;;5.10;4.60;;;;;;;;;;5066555;28;20176;-58
2021/12/25 11:35:33;;;;;;;4.30;3.90;;;;;;;;;;5068934;28;20468;-57
2021/12/25 11:38:00;;;;;;;4.13;3.73;;;;;;;;;;5048552;28;21079;-57
2021/12/25 11:40:28;;;;;;;4.27;3.87;;;;;;;;;;5066577;28;20423;-57
2021/12/25 11:42:57;;;;;;;4.47;3.70;;;;;;;;;;5050361;28;20427;-57
2021/12/25 11:45:28;;;;;;;3.87;3.50;;;;;;;;;;5052991;28;20990;-57
2021/12/25 11:47:57;;;;;;;4.27;3.57;;;;;;;;;;5066785;28;20455;-57
2021/12/25 11:50:32;;;;;;;4.77;3.73;;;;;;;;;;5072256;28;20425;-57
2021/12/25 11:53:15;;;;;;;4.37;3.43;;;;;;;;;;5068005;28;20855;-57
2021/12/25 11:58:40;;;;;;;3.83;3.30;;;;;;;;;;5085287;28;20422;-57
2021/12/25 12:01:17;;;;;;;3.53;3.10;;;;;;;;;;5082482;28;20438;-57
2021/12/25 12:03:46;;;;;;;4.07;3.10;;;;;;;;;;5056449;28;20431;-57
2021/12/25 12:06:13;;;;;;;3.33;2.93;;;;;;;;;;5068781;28;20442;-57
2021/12/25 12:08:55;;;;;;;4.10;3.43;;;;;;;;;;5062920;28;20172;-57
2021/12/25 12:11:23;;;;;;;3.60;3.17;;;;;;;;;;5084016;28;20520;-57
2021/12/25 12:14:09;;;;;;;3.87;2.93;;;;;;;;;;5080535;28;20418;-57
2021/12/25 12:16:36;;;;;;;4.73;3.70;;;;;;;;;;5082345;28;20453;-57
2021/12/25 12:19:03;;;;;;;3.13;2.67;;;;;;;;;;5086148;28;20422;-58
2021/12/25 12:21:38;;;;;;;3.33;3.03;;;;;;;;;;5085683;28;20426;-57
2021/12/25 12:24:40;;;;;;;3.40;3.10;;;;;;;;;;5087877;28;20266;-57
2021/12/25 12:27:07;;;;;;;3.37;2.53;;;;;;;;;;5066737;28;20802;-57
2021/12/25 12:29:36;;;;;;;3.50;3.00;;;;;;;;;;5066990;28;20464;-57
2021/12/25 12:32:02;;;;;;;3.87;3.47;;;;;;;;;;5082683;28;20433;-58
2021/12/25 12:34:42;;;;;;;3.40;3.10;;;;;;;;;;5067455;28;20441;-57
2021/12/25 12:37:14;;;;;;;3.97;3.20;;;;;;;;;;5082756;28;21011;-57
2021/12/25 12:40:03;;;;;;;3.33;3.03;;;;;;;;;;5067969;28;20500;-57
2021/12/25 12:42:38;;;;;;;2.43;2.23;;;;;;;;;;5065092;28;20184;-57
2021/12/25 12:45:11;;;;;;;3.27;2.57;;;;;;;;;;5085599;28;20188;-57
2021/12/25 12:47:38;;;;;;;3.30;2.80;;;;;;;;;;5068486;28;20200;-57
2021/12/25 12:50:05;;;;;;;3.53;3.07;;;;;;;;;;5084098;28;20430;-56
2021/12/25 12:52:38;;;;;;;3.33;2.70;;;;;;;;;;5070598;28;20468;-57
2021/12/25 12:55:12;;;;;;;3.17;2.87;;;;;;;;;;5081452;28;20977;-57
2021/12/25 12:57:43;;;;;;;3.97;2.90;;;;;;;;;;5077298;28;20437;-57
2021/12/25 13:00:21;;;;;;;3.10;2.80;;;;;;;;;;5069755;28;20426;-57
2021/12/25 13:02:49;;;;;;;2.80;2.50;;;;;;;;;;5085878;28;20815;-58
2021/12/25 13:05:18;;;;;;;2.60;2.40;;;;;;;;;;5095209;28;20414;-58
2021/12/25 13:07:47;;;;;;;2.40;2.20;;;;;;;;;;5073689;28;20462;-57
2021/12/25 13:10:20;;;;;;;2.97;2.67;;;;;;;;;;5068850;28;20520;-57
2021/12/25 13:12:49;;;;;;;2.67;2.30;;;;;;;;;;5085411;28;20793;-57
2021/12/25 13:15:16;;;;;;;3.13;2.80;;;;;;;;;;5083229;28;20410;-58
2021/12/25 13:17:46;;;;;;;2.93;2.63;;;;;;;;;;5092626;28;20738;-57
2021/12/25 13:20:13;;;;;;;2.67;2.47;;;;;;;;;;5057227;28;20881;-57
2021/12/25 13:22:39;;;;;;;2.93;2.50;;;;;;;;;;5085204;28;20437;-58
2021/12/25 13:25:10;;;;;;;3.43;2.90;;;;;;;;;;5089226;28;20643;-57
2021/12/25 13:27:36;;;;;;;2.77;2.50;;;;;;;;;;5091584;28;20472;-57
2021/12/25 13:30:08;;;;;;;3.03;2.60;;;;;;;;;;5083681;28;20417;-57
2021/12/25 13:32:35;;;;;;;3.07;2.33;;;;;;;;;;5088082;28;20422;-58
2021/12/25 13:35:01;;;;;;;3.23;2.20;;;;;;;;;;5072868;28;20414;-58
2021/12/25 13:37:28;;;;;;;3.00;2.13;;;;;;;;;;5072999;28;20787;-57
2021/12/25 13:39:54;;;;;;;3.77;1.93;;;;;;;;;;5078604;28;20701;-57
2021/12/25 13:42:21;;;;;;;2.20;2.00;;;;;;;;;;5078814;28;20437;-58
2021/12/25 13:44:48;;;;;;;2.20;2.00;;;;;;;;;;5088174;28;20967;-58
2021/12/25 13:47:15;;;;;;;2.70;2.30;;;;;;;;;;5081224;28;20456;-58
2021/12/25 13:49:42;;;;;;;5.63;2.53;;;;;;;;;;5079999;28;20428;-58
2021/12/25 13:52:11;;;;;;;5.10;2.10;;;;;;;;;;5081892;28;20454;-57
2021/12/25 13:54:42;;;;;;;2.27;2.07;;;;;;;;;;5062959;28;20447;-59
2021/12/25 13:57:10;;;;;;;2.20;1.93;;;;;;;;;;5050054;28;20594;-57
2021/12/25 13:59:36;;;;;;;3.03;2.27;;;;;;;;;;5040933;28;20439;-58
2021/12/25 14:02:07;;;;;;;3.17;1.90;;;;;;;;;;5070871;28;20777;-57
2021/12/25 14:04:33;;;;;;;2.70;2.37;;;;;;;;;;5083660;28;20403;-57
2021/12/25 14:07:00;;;;;;;2.30;2.10;;;;;;;;;;5075389;28;20611;-57
2021/12/25 14:09:26;;;;;;;2.23;1.90;;;;;;;;;;5068044;28;20661;-56
2021/12/25 14:11:54;;;;;;;1.77;1.67;;;;;;;;;;5067882;28;20437;-57
2021/12/25 14:14:21;;;;;;;2.27;2.07;;;;;;;;;;5069001;28;20513;-56
2021/12/25 14:16:47;;;;;;;2.63;1.80;;;;;;;;;;5069413;28;20426;-57
2021/12/25 14:19:14;;;;;;;2.20;1.73;;;;;;;;;;5069416;28;20937;-57
2021/12/25 14:21:52;;;;;;;2.87;1.83;;;;;;;;;;5052673;28;20423;-56
2021/12/25 14:24:18;;;;;;;2.73;2.10;;;;;;;;;;5073006;28;20817;-57
2021/12/25 14:26:45;;;;;;;2.80;1.90;;;;;;;;;;5068064;28;20584;-57
2021/12/25 14:29:29;;;;;;;2.93;1.73;;;;;;;;;;5043352;28;20931;-56
2021/12/25 14:31:55;;;;;;;2.37;2.00;;;;;;;;;;5074330;28;20410;-56
2021/12/25 14:34:28;;;;;;;2.10;1.90;;;;;;;;;;5053293;28;20739;-57
2021/12/25 14:36:54;;;;;;;1.90;1.70;;;;;;;;;;5068139;28;20965;-57
2021/12/25 14:39:22;;;;;;;2.00;1.80;;;;;;;;;;5068081;28;20426;-56
2021/12/25 14:41:51;;;;;;;2.30;2.10;;;;;;;;;;5066446;28;20481;-56
2021/12/25 14:44:20;;;;;;;2.40;2.03;;;;;;;;;;5058979;28;20450;-57
2021/12/25 14:46:47;;;;;;;3.23;2.00;;;;;;;;;;5068682;28;20525;-57
2021/12/25 14:49:13;;;;;;;2.20;2.00;;;;;;;;;;5029972;28;20483;-57
2021/12/25 14:51:43;;;;;;;2.00;1.70;;;;;;;;;;5076683;28;20243;-61
2021/12/25 14:54:10;;;;;;;2.73;1.93;;;;;;;;;;5067969;28;20514;-56
2021/12/25 14:56:38;;;;;;;1.73;1.63;;;;;;;;;;5067254;28;20789;-57
2021/12/25 14:59:06;;;;;;;3.37;1.73;;;;;;;;;;5089958;28;20625;-58
2021/12/25 15:01:37;;;;;;;2.80;2.37;;;;;;;;;;5070221;28;20968;-56
2021/12/25 15:04:11;;;;;;;1.70;1.53;;;;;;;;;;5086419;28;20828;-56
2021/12/25 15:06:45;;;;;;;1.90;1.60;;;;;;;;;;5068864;28;20984;-56
2021/12/25 15:09:13;;;;;;;1.70;1.60;;;;;;;;;;5069028;28;20452;-57
2021/12/25 15:11:41;;;;;;;1.53;1.40;;;;;;;;;;5087561;28;20932;-57
2021/12/25 15:14:09;;;;;;;2.83;1.90;;;;;;;;;;5069116;28;20449;-57
2021/12/25 15:16:48;;;;;;;2.30;1.60;;;;;;;;;;5088213;28;20421;-56
2021/12/25 15:19:43;;;;;;;1.67;1.50;;;;;;;;;;5083958;28;20957;-57
2021/12/25 15:22:21;;;;;;;1.30;1.20;;;;;;;;;;5062377;28;20921;-57
2021/12/25 15:25:01;;;;;;;2.17;1.77;;;;;;;;;;5065401;28;20520;-56
2021/12/25 15:27:27;;;;;;;2.37;1.80;;;;;;;;;;5087032;28;20505;-57
2021/12/25 15:29:55;;;;;;;1.70;1.57;;;;;;;;;;5066337;28;20427;-56
2021/12/25 15:32:22;;;;;;;1.93;1.70;;;;;;;;;;5068147;28;20605;-57
2021/12/25 15:34:57;;;;;;;2.17;1.97;;;;;;;;;;5063949;28;20427;-57
2021/12/25 15:37:25;;;;;;;1.63;1.53;;;;;;;;;;5075001;28;20438;-57
2021/12/25 15:39:52;;;;;;;1.70;1.60;;;;;;;;;;5066037;28;20454;-56
2021/12/25 15:42:18;;;;;;;4.73;1.53;;;;;;;;;;5068213;28;20449;-57
2021/12/25 15:44:45;;;;;;;1.60;1.50;;;;;;;;;;5080578;28;20432;-58
2021/12/25 15:47:11;;;;;;;1.87;1.60;;;;;;;;;;5066101;28;20835;-58
2021/12/25 15:49:37;;;;;;;1.60;1.50;;;;;;;;;;5066069;28;20476;-58
2021/12/25 15:52:04;;;;;;;4.67;1.73;;;;;;;;;;5064947;28;20540;-58
2021/12/25 15:54:31;;;;;;;1.93;1.53;;;;;;;;;;5060391;28;20803;-58